sensor_id;sensor_type;location;lat;lon;timestamp;pressure;altitude;pressure_sealevel;temperature
22322;BMP180;11328;53.928;18.522;2023-06-05T00:02:18;101133.00;;;12.80
22322;BMP180;11328;53.928;18.522;2023-06-05T00:04:45;101094.00;;;12.80
22322;BMP180;11328;53.928;18.522;2023-06-05T00:07:12;101125.00;;;12.70
22322;BMP180;11328;53.928;18.522;2023-06-05T00:09:39;101122.00;;;12.70
22322;BMP180;11328;53.928;18.522;2023-06-05T00:12:06;101124.00;;;12.60
22322;BMP180;11328;53.928;18.522;2023-06-05T00:14:33;101105.00;;;12.60
22322;BMP180;11328;53.928;18.522;2023-06-05T00:17:01;101115.00;;;12.50
22322;BMP180;11328;53.928;18.522;2023-06-05T00:19:28;101122.00;;;12.40
22322;BMP180;11328;53.928;18.522;2023-06-05T00:21:56;101115.00;;;12.30
22322;BMP180;11328;53.928;18.522;2023-06-05T00:24:24;101113.00;;;12.20
22322;BMP180;11328;53.928;18.522;2023-06-05T00:26:51;101115.00;;;12.10
22322;BMP180;11328;53.928;18.522;2023-06-05T00:29:17;101120.00;;;12.00
22322;BMP180;11328;53.928;18.522;2023-06-05T00:31:44;101124.00;;;11.90
22322;BMP180;11328;53.928;18.522;2023-06-05T00:34:13;101113.00;;;11.90
22322;BMP180;11328;53.928;18.522;2023-06-05T00:36:40;101107.00;;;11.80
22322;BMP180;11328;53.928;18.522;2023-06-05T00:39:07;101112.00;;;11.80
22322;BMP180;11328;53.928;18.522;2023-06-05T00:41:36;101102.00;;;11.70
22322;BMP180;11328;53.928;18.522;2023-06-05T00:44:09;101103.00;;;11.70
22322;BMP180;11328;53.928;18.522;2023-06-05T00:46:37;101095.00;;;11.50
22322;BMP180;11328;53.928;18.522;2023-06-05T00:49:06;101107.00;;;11.50
22322;BMP180;11328;53.928;18.522;2023-06-05T00:51:34;101103.00;;;11.40
22322;BMP180;11328;53.928;18.522;2023-06-05T00:54:03;101103.00;;;11.40
22322;BMP180;11328;53.928;18.522;2023-06-05T00:56:31;101100.00;;;11.40
22322;BMP180;11328;53.928;18.522;2023-06-05T00:59:02;101090.00;;;11.30
22322;BMP180;11328;53.928;18.522;2023-06-05T01:01:30;101095.00;;;11.30
22322;BMP180;11328;53.928;18.522;2023-06-05T01:03:57;101094.00;;;11.30
22322;BMP180;11328;53.928;18.522;2023-06-05T01:06:26;101088.00;;;11.30
22322;BMP180;11328;53.928;18.522;2023-06-05T01:08:54;101089.00;;;11.30
22322;BMP180;11328;53.928;18.522;2023-06-05T01:14:23;101077.00;;;11.10
22322;BMP180;11328;53.928;18.522;2023-06-05T01:16:52;101059.00;;;11.00
22322;BMP180;11328;53.928;18.522;2023-06-05T01:19:22;101084.00;;;11.00
22322;BMP180;11328;53.928;18.522;2023-06-05T01:21:52;101081.00;;;11.00
22322;BMP180;11328;53.928;18.522;2023-06-05T01:24:19;101072.00;;;10.90
22322;BMP180;11328;53.928;18.522;2023-06-05T01:33:25;101067.00;;;10.80
22322;BMP180;11328;53.928;18.522;2023-06-05T01:35:46;101066.00;;;10.80
22322;BMP180;11328;53.928;18.522;2023-06-05T01:38:20;101075.00;;;10.80
22322;BMP180;11328;53.928;18.522;2023-06-05T01:40:50;101071.00;;;10.60
22322;BMP180;11328;53.928;18.522;2023-06-05T01:43:18;101059.00;;;10.60
22322;BMP180;11328;53.928;18.522;2023-06-05T01:45:46;101062.00;;;10.60
22322;BMP180;11328;53.928;18.522;2023-06-05T01:48:14;101066.00;;;10.70
22322;BMP180;11328;53.928;18.522;2023-06-05T01:50:41;101057.00;;;10.60
22322;BMP180;11328;53.928;18.522;2023-06-05T01:53:09;101066.00;;;10.70
22322;BMP180;11328;53.928;18.522;2023-06-05T01:55:38;101063.00;;;10.70
22322;BMP180;11328;53.928;18.522;2023-06-05T01:58:07;101067.00;;;10.80
22322;BMP180;11328;53.928;18.522;2023-06-05T02:00:34;101063.00;;;10.80
22322;BMP180;11328;53.928;18.522;2023-06-05T02:03:02;101062.00;;;10.80
22322;BMP180;11328;53.928;18.522;2023-06-05T02:05:30;101063.00;;;10.80
22322;BMP180;11328;53.928;18.522;2023-06-05T02:07:58;101067.00;;;10.70
22322;BMP180;11328;53.928;18.522;2023-06-05T02:10:25;101063.00;;;10.70
22322;BMP180;11328;53.928;18.522;2023-06-05T02:12:52;101069.00;;;10.70
22322;BMP180;11328;53.928;18.522;2023-06-05T02:15:19;101061.00;;;10.80
22322;BMP180;11328;53.928;18.522;2023-06-05T02:17:46;101057.00;;;10.90
22322;BMP180;11328;53.928;18.522;2023-06-05T02:20:20;101053.00;;;11.00
22322;BMP180;11328;53.928;18.522;2023-06-05T02:22:47;101061.00;;;11.00
22322;BMP180;11328;53.928;18.522;2023-06-05T02:25:19;101056.00;;;11.00
22322;BMP180;11328;53.928;18.522;2023-06-05T02:27:47;101058.00;;;10.70
22322;BMP180;11328;53.928;18.522;2023-06-05T02:30:15;101050.00;;;10.60
22322;BMP180;11328;53.928;18.522;2023-06-05T02:32:42;101062.00;;;10.70
22322;BMP180;11328;53.928;18.522;2023-06-05T02:35:11;101052.00;;;10.80
22322;BMP180;11328;53.928;18.522;2023-06-05T02:37:40;101059.00;;;10.80
22322;BMP180;11328;53.928;18.522;2023-06-05T02:40:12;101058.00;;;10.70
22322;BMP180;11328;53.928;18.522;2023-06-05T02:42:40;101050.00;;;10.50
22322;BMP180;11328;53.928;18.522;2023-06-05T02:45:08;101058.00;;;10.50
22322;BMP180;11328;53.928;18.522;2023-06-05T02:47:35;101055.00;;;10.60
22322;BMP180;11328;53.928;18.522;2023-06-05T02:50:03;101024.00;;;10.60
22322;BMP180;11328;53.928;18.522;2023-06-05T02:52:31;101053.00;;;10.50
22322;BMP180;11328;53.928;18.522;2023-06-05T02:55:02;101043.00;;;10.40
22322;BMP180;11328;53.928;18.522;2023-06-05T02:57:30;101041.00;;;10.40
22322;BMP180;11328;53.928;18.522;2023-06-05T02:59:57;101054.00;;;10.30
22322;BMP180;11328;53.928;18.522;2023-06-05T03:02:24;101053.00;;;10.30
22322;BMP180;11328;53.928;18.522;2023-06-05T03:04:54;101045.00;;;10.30
22322;BMP180;11328;53.928;18.522;2023-06-05T03:07:22;101052.00;;;10.40
22322;BMP180;11328;53.928;18.522;2023-06-05T03:09:49;101053.00;;;10.40
22322;BMP180;11328;53.928;18.522;2023-06-05T03:12:16;101053.00;;;10.40
22322;BMP180;11328;53.928;18.522;2023-06-05T03:14:43;101045.00;;;10.30
22322;BMP180;11328;53.928;18.522;2023-06-05T03:17:10;101047.00;;;10.40
22322;BMP180;11328;53.928;18.522;2023-06-05T03:19:37;101057.00;;;10.50
22322;BMP180;11328;53.928;18.522;2023-06-05T03:22:04;101053.00;;;10.60
22322;BMP180;11328;53.928;18.522;2023-06-05T03:24:31;101050.00;;;10.70
22322;BMP180;11328;53.928;18.522;2023-06-05T03:26:58;101057.00;;;10.90
22322;BMP180;11328;53.928;18.522;2023-06-05T03:29:25;101057.00;;;11.10
22322;BMP180;11328;53.928;18.522;2023-06-05T03:31:52;101061.00;;;11.30
22322;BMP180;11328;53.928;18.522;2023-06-05T03:34:19;101059.00;;;11.40
22322;BMP180;11328;53.928;18.522;2023-06-05T03:36:46;101067.00;;;11.60
22322;BMP180;11328;53.928;18.522;2023-06-05T03:39:18;101064.00;;;11.80
22322;BMP180;11328;53.928;18.522;2023-06-05T03:41:45;101061.00;;;11.90
22322;BMP180;11328;53.928;18.522;2023-06-05T03:44:12;101060.00;;;12.00
22322;BMP180;11328;53.928;18.522;2023-06-05T03:46:39;101061.00;;;12.10
22322;BMP180;11328;53.928;18.522;2023-06-05T03:49:06;101074.00;;;12.30
22322;BMP180;11328;53.928;18.522;2023-06-05T03:51:35;101074.00;;;12.40
22322;BMP180;11328;53.928;18.522;2023-06-05T03:54:03;101061.00;;;12.50
22322;BMP180;11328;53.928;18.522;2023-06-05T03:56:31;101066.00;;;12.70
22322;BMP180;11328;53.928;18.522;2023-06-05T03:59:01;101072.00;;;12.90
22322;BMP180;11328;53.928;18.522;2023-06-05T04:01:45;101070.00;;;13.10
22322;BMP180;11328;53.928;18.522;2023-06-05T04:04:12;101067.00;;;13.20
22322;BMP180;11328;53.928;18.522;2023-06-05T04:06:40;101070.00;;;13.30
22322;BMP180;11328;53.928;18.522;2023-06-05T04:09:07;101073.00;;;13.50
22322;BMP180;11328;53.928;18.522;2023-06-05T04:11:42;101065.00;;;13.60
22322;BMP180;11328;53.928;18.522;2023-06-05T04:14:11;101076.00;;;13.70
22322;BMP180;11328;53.928;18.522;2023-06-05T04:16:39;101068.00;;;13.90
22322;BMP180;11328;53.928;18.522;2023-06-05T04:19:07;101064.00;;;14.00
22322;BMP180;11328;53.928;18.522;2023-06-05T04:21:38;101066.00;;;14.00
22322;BMP180;11328;53.928;18.522;2023-06-05T04:24:06;101067.00;;;14.10
22322;BMP180;11328;53.928;18.522;2023-06-05T04:26:36;101074.00;;;14.20
22322;BMP180;11328;53.928;18.522;2023-06-05T04:29:04;101071.00;;;14.30
22322;BMP180;11328;53.928;18.522;2023-06-05T04:31:46;101071.00;;;14.50
22322;BMP180;11328;53.928;18.522;2023-06-05T04:34:14;101070.00;;;14.50
22322;BMP180;11328;53.928;18.522;2023-06-05T04:36:41;101070.00;;;14.50
22322;BMP180;11328;53.928;18.522;2023-06-05T04:39:08;101077.00;;;14.60
22322;BMP180;11328;53.928;18.522;2023-06-05T04:41:42;101071.00;;;14.70
22322;BMP180;11328;53.928;18.522;2023-06-05T04:44:18;101069.00;;;14.80
22322;BMP180;11328;53.928;18.522;2023-06-05T04:46:46;101082.00;;;14.90
22322;BMP180;11328;53.928;18.522;2023-06-05T04:49:14;101078.00;;;15.10
22322;BMP180;11328;53.928;18.522;2023-06-05T04:51:42;101079.00;;;15.30
22322;BMP180;11328;53.928;18.522;2023-06-05T04:54:10;101076.00;;;15.50
22322;BMP180;11328;53.928;18.522;2023-06-05T04:56:38;101068.00;;;15.60
22322;BMP180;11328;53.928;18.522;2023-06-05T04:59:06;101066.00;;;15.70
22322;BMP180;11328;53.928;18.522;2023-06-05T05:01:33;101058.00;;;15.90
22322;BMP180;11328;53.928;18.522;2023-06-05T05:04:00;101069.00;;;16.00
22322;BMP180;11328;53.928;18.522;2023-06-05T05:06:28;101040.00;;;16.00
22322;BMP180;11328;53.928;18.522;2023-06-05T05:08:55;101066.00;;;16.20
22322;BMP180;11328;53.928;18.522;2023-06-05T05:11:23;101066.00;;;16.30
22322;BMP180;11328;53.928;18.522;2023-06-05T05:13:50;101080.00;;;16.50
22322;BMP180;11328;53.928;18.522;2023-06-05T05:16:17;101070.00;;;16.90
22322;BMP180;11328;53.928;18.522;2023-06-05T05:18:44;101067.00;;;17.10
22322;BMP180;11328;53.928;18.522;2023-06-05T05:21:12;101070.00;;;17.30
22322;BMP180;11328;53.928;18.522;2023-06-05T05:23:39;101065.00;;;17.50
22322;BMP180;11328;53.928;18.522;2023-06-05T05:26:07;101076.00;;;17.70
22322;BMP180;11328;53.928;18.522;2023-06-05T05:28:34;101065.00;;;17.90
22322;BMP180;11328;53.928;18.522;2023-06-05T05:31:01;101071.00;;;18.00
22322;BMP180;11328;53.928;18.522;2023-06-05T05:33:29;101069.00;;;18.30
22322;BMP180;11328;53.928;18.522;2023-06-05T05:35:56;101065.00;;;18.40
22322;BMP180;11328;53.928;18.522;2023-06-05T05:38:23;101067.00;;;18.60
22322;BMP180;11328;53.928;18.522;2023-06-05T05:40:51;101066.00;;;18.90
22322;BMP180;11328;53.928;18.522;2023-06-05T05:43:19;101067.00;;;19.10
22322;BMP180;11328;53.928;18.522;2023-06-05T05:45:46;101070.00;;;19.10
22322;BMP180;11328;53.928;18.522;2023-06-05T05:48:13;101054.00;;;19.20
22322;BMP180;11328;53.928;18.522;2023-06-05T05:50:40;101086.00;;;19.40
22322;BMP180;11328;53.928;18.522;2023-06-05T05:53:08;101080.00;;;19.70
22322;BMP180;11328;53.928;18.522;2023-06-05T05:55:35;101081.00;;;19.90
22322;BMP180;11328;53.928;18.522;2023-06-05T05:58:02;101081.00;;;20.00
22322;BMP180;11328;53.928;18.522;2023-06-05T06:00:29;101084.00;;;20.20
22322;BMP180;11328;53.928;18.522;2023-06-05T06:02:56;101074.00;;;20.30
22322;BMP180;11328;53.928;18.522;2023-06-05T06:05:23;101093.00;;;20.50
22322;BMP180;11328;53.928;18.522;2023-06-05T06:07:51;101086.00;;;20.70
22322;BMP180;11328;53.928;18.522;2023-06-05T06:10:18;101091.00;;;20.80
22322;BMP180;11328;53.928;18.522;2023-06-05T06:12:46;101081.00;;;20.90
22322;BMP180;11328;53.928;18.522;2023-06-05T06:15:13;101078.00;;;21.10
22322;BMP180;11328;53.928;18.522;2023-06-05T06:17:41;101101.00;;;21.20
22322;BMP180;11328;53.928;18.522;2023-06-05T06:20:08;101104.00;;;21.30
22322;BMP180;11328;53.928;18.522;2023-06-05T06:22:40;101099.00;;;21.50
22322;BMP180;11328;53.928;18.522;2023-06-05T06:25:10;101099.00;;;21.40
22322;BMP180;11328;53.928;18.522;2023-06-05T06:27:38;101100.00;;;21.40
22322;BMP180;11328;53.928;18.522;2023-06-05T06:30:06;101106.00;;;21.50
22322;BMP180;11328;53.928;18.522;2023-06-05T06:32:34;101106.00;;;21.50
22322;BMP180;11328;53.928;18.522;2023-06-05T06:35:01;101105.00;;;21.60
22322;BMP180;11328;53.928;18.522;2023-06-05T06:37:29;101108.00;;;21.60
22322;BMP180;11328;53.928;18.522;2023-06-05T06:39:57;101104.00;;;21.60
22322;BMP180;11328;53.928;18.522;2023-06-05T06:42:25;101113.00;;;21.70
22322;BMP180;11328;53.928;18.522;2023-06-05T06:44:54;101116.00;;;21.90
22322;BMP180;11328;53.928;18.522;2023-06-05T06:47:23;101117.00;;;22.00
22322;BMP180;11328;53.928;18.522;2023-06-05T06:49:53;101048.00;;;22.10
22322;BMP180;11328;53.928;18.522;2023-06-05T06:52:20;101118.00;;;22.40
22322;BMP180;11328;53.928;18.522;2023-06-05T06:54:51;101112.00;;;22.60
22322;BMP180;11328;53.928;18.522;2023-06-05T06:57:18;101121.00;;;23.00
22322;BMP180;11328;53.928;18.522;2023-06-05T06:59:45;101113.00;;;22.80
22322;BMP180;11328;53.928;18.522;2023-06-05T07:02:15;101120.00;;;22.80
22322;BMP180;11328;53.928;18.522;2023-06-05T07:04:44;101123.00;;;23.00
22322;BMP180;11328;53.928;18.522;2023-06-05T07:07:14;101112.00;;;23.20
22322;BMP180;11328;53.928;18.522;2023-06-05T07:09:43;101120.00;;;23.20
22322;BMP180;11328;53.928;18.522;2023-06-05T07:12:13;101114.00;;;23.20
22322;BMP180;11328;53.928;18.522;2023-06-05T07:14:41;101106.00;;;23.40
22322;BMP180;11328;53.928;18.522;2023-06-05T07:17:08;101110.00;;;23.80
22322;BMP180;11328;53.928;18.522;2023-06-05T07:19:36;101110.00;;;24.10
22322;BMP180;11328;53.928;18.522;2023-06-05T07:22:04;101119.00;;;24.30
22322;BMP180;11328;53.928;18.522;2023-06-05T07:24:33;101113.00;;;24.40
22322;BMP180;11328;53.928;18.522;2023-06-05T07:27:03;101113.00;;;24.60
22322;BMP180;11328;53.928;18.522;2023-06-05T07:29:30;101094.00;;;24.60
22322;BMP180;11328;53.928;18.522;2023-06-05T07:31:59;101117.00;;;24.70
22322;BMP180;11328;53.928;18.522;2023-06-05T07:34:27;101116.00;;;24.90
22322;BMP180;11328;53.928;18.522;2023-06-05T07:36:54;101122.00;;;25.10
22322;BMP180;11328;53.928;18.522;2023-06-05T07:39:23;101119.00;;;25.30
22322;BMP180;11328;53.928;18.522;2023-06-05T07:41:50;101114.00;;;25.30
22322;BMP180;11328;53.928;18.522;2023-06-05T07:44:20;101116.00;;;25.20
22322;BMP180;11328;53.928;18.522;2023-06-05T07:46:50;101123.00;;;25.50
22322;BMP180;11328;53.928;18.522;2023-06-05T07:49:18;101118.00;;;25.80
22322;BMP180;11328;53.928;18.522;2023-06-05T07:51:46;101119.00;;;26.00
22322;BMP180;11328;53.928;18.522;2023-06-05T07:54:15;101116.00;;;26.50
22322;BMP180;11328;53.928;18.522;2023-06-05T07:56:43;101122.00;;;26.30
22322;BMP180;11328;53.928;18.522;2023-06-05T07:59:10;101112.00;;;26.40
22322;BMP180;11328;53.928;18.522;2023-06-05T08:01:42;101125.00;;;26.30
22322;BMP180;11328;53.928;18.522;2023-06-05T08:04:09;101121.00;;;26.20
22322;BMP180;11328;53.928;18.522;2023-06-05T08:06:40;101121.00;;;26.30
22322;BMP180;11328;53.928;18.522;2023-06-05T08:09:08;101117.00;;;26.70
22322;BMP180;11328;53.928;18.522;2023-06-05T08:11:39;101107.00;;;26.90
22322;BMP180;11328;53.928;18.522;2023-06-05T08:14:07;101121.00;;;27.10
22322;BMP180;11328;53.928;18.522;2023-06-05T08:16:35;101110.00;;;26.90
22322;BMP180;11328;53.928;18.522;2023-06-05T08:19:03;101110.00;;;26.60
22322;BMP180;11328;53.928;18.522;2023-06-05T08:21:30;101128.00;;;26.30
22322;BMP180;11328;53.928;18.522;2023-06-05T08:23:57;101122.00;;;26.20
22322;BMP180;11328;53.928;18.522;2023-06-05T08:26:24;101119.00;;;26.30
22322;BMP180;11328;53.928;18.522;2023-06-05T08:28:52;101117.00;;;26.40
22322;BMP180;11328;53.928;18.522;2023-06-05T08:31:20;101119.00;;;26.80
22322;BMP180;11328;53.928;18.522;2023-06-05T08:33:47;101121.00;;;27.00
22322;BMP180;11328;53.928;18.522;2023-06-05T08:36:15;101114.00;;;27.00
22322;BMP180;11328;53.928;18.522;2023-06-05T08:38:43;101105.00;;;26.90
22322;BMP180;11328;53.928;18.522;2023-06-05T08:41:13;101120.00;;;26.90
22322;BMP180;11328;53.928;18.522;2023-06-05T08:43:43;101119.00;;;27.20
22322;BMP180;11328;53.928;18.522;2023-06-05T08:46:14;101124.00;;;27.30
22322;BMP180;11328;53.928;18.522;2023-06-05T08:48:48;101123.00;;;27.30
22322;BMP180;11328;53.928;18.522;2023-06-05T08:51:19;101115.00;;;27.50
22322;BMP180;11328;53.928;18.522;2023-06-05T08:54:08;101124.00;;;27.30
22322;BMP180;11328;53.928;18.522;2023-06-05T08:56:41;101108.00;;;27.50
22322;BMP180;11328;53.928;18.522;2023-06-05T08:59:11;101120.00;;;27.70
22322;BMP180;11328;53.928;18.522;2023-06-05T09:01:42;101115.00;;;27.90
22322;BMP180;11328;53.928;18.522;2023-06-05T09:04:09;101113.00;;;27.70
22322;BMP180;11328;53.928;18.522;2023-06-05T09:06:36;101116.00;;;27.60
22322;BMP180;11328;53.928;18.522;2023-06-05T09:09:03;101121.00;;;27.80
22322;BMP180;11328;53.928;18.522;2023-06-05T09:11:31;101122.00;;;27.90
22322;BMP180;11328;53.928;18.522;2023-06-05T09:14:01;101124.00;;;28.10
22322;BMP180;11328;53.928;18.522;2023-06-05T09:16:42;101127.00;;;27.90
22322;BMP180;11328;53.928;18.522;2023-06-05T09:19:12;101119.00;;;27.90
22322;BMP180;11328;53.928;18.522;2023-06-05T09:21:39;101115.00;;;28.10
22322;BMP180;11328;53.928;18.522;2023-06-05T09:24:16;101111.00;;;28.30
22322;BMP180;11328;53.928;18.522;2023-06-05T09:27:02;101095.00;;;28.50
22322;BMP180;11328;53.928;18.522;2023-06-05T09:29:36;101105.00;;;28.60
22322;BMP180;11328;53.928;18.522;2023-06-05T09:32:10;101113.00;;;28.80
22322;BMP180;11328;53.928;18.522;2023-06-05T09:34:42;101100.00;;;28.70
22322;BMP180;11328;53.928;18.522;2023-06-05T09:37:12;101112.00;;;28.60
22322;BMP180;11328;53.928;18.522;2023-06-05T09:39:42;101113.00;;;28.60
22322;BMP180;11328;53.928;18.522;2023-06-05T09:42:13;101116.00;;;28.70
22322;BMP180;11328;53.928;18.522;2023-06-05T09:44:40;101110.00;;;29.10
22322;BMP180;11328;53.928;18.522;2023-06-05T09:47:11;101108.00;;;29.10
22322;BMP180;11328;53.928;18.522;2023-06-05T09:52:12;101102.00;;;29.00
22322;BMP180;11328;53.928;18.522;2023-06-05T09:54:43;101106.00;;;29.00
22322;BMP180;11328;53.928;18.522;2023-06-05T09:57:15;101105.00;;;29.10
22322;BMP180;11328;53.928;18.522;2023-06-05T09:59:54;101110.00;;;29.10
22322;BMP180;11328;53.928;18.522;2023-06-05T10:02:26;101103.00;;;29.00
22322;BMP180;11328;53.928;18.522;2023-06-05T10:05:01;101099.00;;;28.60
22322;BMP180;11328;53.928;18.522;2023-06-05T10:07:31;101103.00;;;29.10
22322;BMP180;11328;53.928;18.522;2023-06-05T10:09:59;101091.00;;;29.30
22322;BMP180;11328;53.928;18.522;2023-06-05T10:12:27;101083.00;;;29.40
22322;BMP180;11328;53.928;18.522;2023-06-05T10:14:54;101088.00;;;29.50
22322;BMP180;11328;53.928;18.522;2023-06-05T10:17:22;101089.00;;;29.40
22322;BMP180;11328;53.928;18.522;2023-06-05T10:19:51;101088.00;;;29.10
22322;BMP180;11328;53.928;18.522;2023-06-05T10:22:18;101085.00;;;29.10
22322;BMP180;11328;53.928;18.522;2023-06-05T10:24:58;101085.00;;;29.40
22322;BMP180;11328;53.928;18.522;2023-06-05T10:28:16;101084.00;;;29.60
22322;BMP180;11328;53.928;18.522;2023-06-05T10:31:13;101086.00;;;29.70
22322;BMP180;11328;53.928;18.522;2023-06-05T10:34:48;101076.00;;;29.70
22322;BMP180;11328;53.928;18.522;2023-06-05T10:39:53;101074.00;;;29.90
22322;BMP180;11328;53.928;18.522;2023-06-05T10:42:28;101072.00;;;30.00
22322;BMP180;11328;53.928;18.522;2023-06-05T10:44:56;101066.00;;;30.20
22322;BMP180;11328;53.928;18.522;2023-06-05T10:52:45;101062.00;;;30.30
22322;BMP180;11328;53.928;18.522;2023-06-05T10:55:13;101055.00;;;30.20
22322;BMP180;11328;53.928;18.522;2023-06-05T11:00:32;101055.00;;;30.20
22322;BMP180;11328;53.928;18.522;2023-06-05T11:03:00;101050.00;;;30.30
22322;BMP180;11328;53.928;18.522;2023-06-05T11:05:29;101046.00;;;30.30
22322;BMP180;11328;53.928;18.522;2023-06-05T11:08:15;101050.00;;;30.00
22322;BMP180;11328;53.928;18.522;2023-06-05T11:11:14;101057.00;;;30.10
22322;BMP180;11328;53.928;18.522;2023-06-05T11:13:55;101051.00;;;30.10
22322;BMP180;11328;53.928;18.522;2023-06-05T11:16:32;101046.00;;;30.30
22322;BMP180;11328;53.928;18.522;2023-06-05T11:19:35;101044.00;;;30.20
22322;BMP180;11328;53.928;18.522;2023-06-05T11:22:10;101048.00;;;30.40
22322;BMP180;11328;53.928;18.522;2023-06-05T11:24:38;101052.00;;;30.30
22322;BMP180;11328;53.928;18.522;2023-06-05T11:27:07;101052.00;;;30.60
22322;BMP180;11328;53.928;18.522;2023-06-05T11:29:37;101047.00;;;30.80
22322;BMP180;11328;53.928;18.522;2023-06-05T11:32:14;101051.00;;;30.40
22322;BMP180;11328;53.928;18.522;2023-06-05T11:34:46;101044.00;;;30.70
22322;BMP180;11328;53.928;18.522;2023-06-05T11:37:17;101048.00;;;30.50
22322;BMP180;11328;53.928;18.522;2023-06-05T11:39:48;101045.00;;;30.80
22322;BMP180;11328;53.928;18.522;2023-06-05T11:42:22;101046.00;;;30.70
22322;BMP180;11328;53.928;18.522;2023-06-05T11:44:52;101036.00;;;30.50
22322;BMP180;11328;53.928;18.522;2023-06-05T11:47:27;101039.00;;;30.60
22322;BMP180;11328;53.928;18.522;2023-06-05T11:50:11;101029.00;;;30.70
22322;BMP180;11328;53.928;18.522;2023-06-05T11:52:39;101036.00;;;30.80
22322;BMP180;11328;53.928;18.522;2023-06-05T11:55:18;101030.00;;;30.80
22322;BMP180;11328;53.928;18.522;2023-06-05T11:57:49;101036.00;;;30.60
22322;BMP180;11328;53.928;18.522;2023-06-05T12:00:26;101035.00;;;30.60
22322;BMP180;11328;53.928;18.522;2023-06-05T12:02:53;101036.00;;;30.80
22322;BMP180;11328;53.928;18.522;2023-06-05T12:05:21;101031.00;;;30.60
22322;BMP180;11328;53.928;18.522;2023-06-05T12:07:47;101023.00;;;30.50
22322;BMP180;11328;53.928;18.522;2023-06-05T12:10:15;101023.00;;;30.30
22322;BMP180;11328;53.928;18.522;2023-06-05T12:12:55;101017.00;;;30.60
22322;BMP180;11328;53.928;18.522;2023-06-05T12:15:22;101013.00;;;30.60
22322;BMP180;11328;53.928;18.522;2023-06-05T12:17:51;101011.00;;;30.50
22322;BMP180;11328;53.928;18.522;2023-06-05T12:20:19;101005.00;;;30.10
22322;BMP180;11328;53.928;18.522;2023-06-05T12:22:47;101013.00;;;30.00
22322;BMP180;11328;53.928;18.522;2023-06-05T12:25:23;101010.00;;;29.80
22322;BMP180;11328;53.928;18.522;2023-06-05T12:27:53;101000.00;;;30.10
22322;BMP180;11328;53.928;18.522;2023-06-05T12:30:20;101006.00;;;30.00
22322;BMP180;11328;53.928;18.522;2023-06-05T12:32:47;101005.00;;;29.60
22322;BMP180;11328;53.928;18.522;2023-06-05T12:35:22;101005.00;;;29.50
22322;BMP180;11328;53.928;18.522;2023-06-05T12:37:50;101001.00;;;29.90
22322;BMP180;11328;53.928;18.522;2023-06-05T12:40:21;100998.00;;;29.50
22322;BMP180;11328;53.928;18.522;2023-06-05T12:43:03;101002.00;;;29.40
22322;BMP180;11328;53.928;18.522;2023-06-05T12:45:30;100997.00;;;29.60
22322;BMP180;11328;53.928;18.522;2023-06-05T12:48:00;100996.00;;;29.70
22322;BMP180;11328;53.928;18.522;2023-06-05T12:50:27;101003.00;;;29.50
22322;BMP180;11328;53.928;18.522;2023-06-05T12:52:55;100991.00;;;29.50
22322;BMP180;11328;53.928;18.522;2023-06-05T12:55:22;100991.00;;;29.70
22322;BMP180;11328;53.928;18.522;2023-06-05T12:57:49;100989.00;;;29.60
22322;BMP180;11328;53.928;18.522;2023-06-05T13:00:17;100994.00;;;29.80
22322;BMP180;11328;53.928;18.522;2023-06-05T13:02:45;100989.00;;;30.00
22322;BMP180;11328;53.928;18.522;2023-06-05T13:05:14;100988.00;;;29.80
22322;BMP180;11328;53.928;18.522;2023-06-05T13:07:42;100980.00;;;29.60
22322;BMP180;11328;53.928;18.522;2023-06-05T13:10:09;100969.00;;;29.50
22322;BMP180;11328;53.928;18.522;2023-06-05T13:12:37;100975.00;;;29.50
22322;BMP180;11328;53.928;18.522;2023-06-05T13:15:08;100975.00;;;29.60
22322;BMP180;11328;53.928;18.522;2023-06-05T13:17:37;100961.00;;;29.50
22322;BMP180;11328;53.928;18.522;2023-06-05T13:20:06;100965.00;;;29.70
22322;BMP180;11328;53.928;18.522;2023-06-05T13:22:35;100969.00;;;30.00
22322;BMP180;11328;53.928;18.522;2023-06-05T13:25:02;100970.00;;;29.80
22322;BMP180;11328;53.928;18.522;2023-06-05T13:27:30;100970.00;;;29.40
22322;BMP180;11328;53.928;18.522;2023-06-05T13:29:57;100966.00;;;29.60
22322;BMP180;11328;53.928;18.522;2023-06-05T13:32:24;100964.00;;;29.70
22322;BMP180;11328;53.928;18.522;2023-06-05T13:34:51;100967.00;;;29.50
22322;BMP180;11328;53.928;18.522;2023-06-05T13:37:21;100970.00;;;29.40
22322;BMP180;11328;53.928;18.522;2023-06-05T13:39:50;100968.00;;;29.30
22322;BMP180;11328;53.928;18.522;2023-06-05T13:42:17;100960.00;;;29.20
22322;BMP180;11328;53.928;18.522;2023-06-05T13:44:45;100964.00;;;29.00
22322;BMP180;11328;53.928;18.522;2023-06-05T13:47:12;100955.00;;;29.10
22322;BMP180;11328;53.928;18.522;2023-06-05T13:49:42;100954.00;;;29.00
22322;BMP180;11328;53.928;18.522;2023-06-05T13:52:09;100960.00;;;29.10
22322;BMP180;11328;53.928;18.522;2023-06-05T13:54:36;100952.00;;;28.90
22322;BMP180;11328;53.928;18.522;2023-06-05T13:57:03;100944.00;;;28.80
22322;BMP180;11328;53.928;18.522;2023-06-05T13:59:30;100951.00;;;29.00
22322;BMP180;11328;53.928;18.522;2023-06-05T14:01:57;100945.00;;;29.20
22322;BMP180;11328;53.928;18.522;2023-06-05T14:04:24;100950.00;;;29.10
22322;BMP180;11328;53.928;18.522;2023-06-05T14:06:51;100948.00;;;29.20
22322;BMP180;11328;53.928;18.522;2023-06-05T14:09:18;100950.00;;;29.00
22322;BMP180;11328;53.928;18.522;2023-06-05T14:11:45;100948.00;;;28.80
22322;BMP180;11328;53.928;18.522;2023-06-05T14:14:12;100944.00;;;28.80
22322;BMP180;11328;53.928;18.522;2023-06-05T14:16:39;100947.00;;;28.80
22322;BMP180;11328;53.928;18.522;2023-06-05T14:19:06;100947.00;;;28.70
22322;BMP180;11328;53.928;18.522;2023-06-05T14:21:33;100946.00;;;28.50